createdAt,value
2022-09-14T00:01:14.317Z,68.62
2022-09-14T00:03:40.648Z,68.73
2022-09-14T00:06:09.381Z,70.04
2022-09-14T00:08:36.727Z,69.33
2022-09-14T00:11:06.230Z,69.42
2022-09-14T00:13:34.204Z,69.69
2022-09-14T00:16:12.157Z,69.59
2022-09-14T00:18:38.887Z,69.13
2022-09-14T00:21:08.284Z,69.08
2022-09-14T00:23:36.907Z,69.08
2022-09-14T00:26:05.419Z,69.93
2022-09-14T00:28:39.769Z,69.98
2022-09-14T00:31:07.723Z,70.98
2022-09-14T00:33:34.838Z,71.20
2022-09-14T00:36:24.344Z,72.09
2022-09-14T00:38:51.745Z,70.83
2022-09-14T00:41:21.917Z,70.87
2022-09-14T00:43:59.492Z,70.66
2022-09-14T00:46:28.643Z,69.64
2022-09-14T00:48:58.029Z,70.27
2022-09-14T00:51:25.789Z,70.49
2022-09-14T00:53:52.705Z,69.49
2022-09-14T00:56:19.741Z,68.95
2022-09-14T00:58:49.488Z,69.92
2022-09-14T01:01:16.771Z,70.18
2022-09-14T01:03:43.587Z,69.48
2022-09-14T01:06:29.303Z,69.02
2022-09-14T01:09:33.065Z,70.09
2022-09-14T01:12:14.497Z,69.23
2022-09-14T01:14:41.425Z,69.27
2022-09-14T01:17:42.230Z,68.99
2022-09-14T01:20:34.063Z,70.52
2022-09-14T01:23:46.202Z,69.58
2022-09-14T01:26:28.029Z,70.07
2022-09-14T01:29:02.104Z,70.30
2022-09-14T01:31:36.459Z,70.12
2022-09-14T01:34:16.038Z,69.74
2022-09-14T01:36:47.723Z,69.52
2022-09-14T01:39:16.528Z,69.08
2022-09-14T01:41:43.835Z,69.28
2022-09-14T01:44:21.538Z,69.50
2022-09-14T01:46:55.480Z,69.76
2022-09-14T01:49:37.190Z,70.20
2022-09-14T01:52:19.590Z,70.85
2022-09-14T01:54:53.036Z,70.49
2022-09-14T01:57:46.234Z,69.98
2022-09-14T02:00:16.434Z,69.38
2022-09-14T02:02:54.609Z,69.75
2022-09-14T02:05:42.633Z,69.81
2022-09-14T02:08:09.508Z,69.97
2022-09-14T02:10:36.666Z,70.02
2022-09-14T02:13:03.878Z,69.61
2022-09-14T02:15:30.728Z,69.81
2022-09-14T02:17:57.517Z,70.75
2022-09-14T02:20:33.300Z,70.33
2022-09-14T02:23:04.311Z,70.55
2022-09-14T02:25:33.447Z,71.78
2022-09-14T02:31:36.889Z,70.27
2022-09-14T02:34:51.351Z,71.17
2022-09-14T02:37:57.951Z,71.58
2022-09-14T02:40:39.494Z,71.14
2022-09-14T02:43:32.418Z,70.89
2022-09-14T02:46:29.724Z,71.50
2022-09-14T02:49:28.034Z,71.60
2022-09-14T02:52:07.697Z,71.43
2022-09-14T02:54:50.474Z,71.14
2022-09-14T02:57:17.634Z,71.31
2022-09-14T02:59:44.334Z,72.29
2022-09-14T03:02:11.602Z,73.00
2022-09-14T03:04:38.585Z,73.86
2022-09-14T03:07:06.668Z,75.16
2022-09-14T03:09:33.405Z,74.64
2022-09-14T03:12:00.165Z,73.85
2022-09-14T03:14:26.900Z,73.54
2022-09-14T03:16:55.458Z,73.70
2022-09-14T03:19:25.741Z,73.38
2022-09-14T03:21:57.136Z,73.91
2022-09-14T03:24:29.963Z,73.89
2022-09-14T03:27:00.182Z,73.44
2022-09-14T03:29:29.382Z,73.53
2022-09-14T03:31:57.369Z,73.23
2022-09-14T03:34:28.510Z,73.26
2022-09-14T03:36:58.970Z,72.81
2022-09-14T03:39:26.630Z,72.49
2022-09-14T03:41:53.298Z,71.85
2022-09-14T03:44:20.507Z,72.55
2022-09-14T03:46:51.105Z,72.58
2022-09-14T03:49:29.914Z,72.59
2022-09-14T03:51:59.883Z,72.08
2022-09-14T03:54:27.640Z,72.22
2022-09-14T03:56:57.900Z,71.78
2022-09-14T03:59:28.410Z,71.97
2022-09-14T04:01:57.608Z,71.43
2022-09-14T04:04:25.618Z,71.76
2022-09-14T04:06:55.087Z,72.19
2022-09-14T04:09:21.794Z,72.34
2022-09-14T04:11:48.399Z,72.55
2022-09-14T04:14:15.225Z,72.99
2022-09-14T04:16:42.003Z,73.33
2022-09-14T04:19:09.181Z,73.74
2022-09-14T04:21:35.781Z,75.08
2022-09-14T04:24:14.804Z,76.23
2022-09-14T04:26:45.417Z,75.63
2022-09-14T04:29:14.605Z,74.99
2022-09-14T04:31:41.625Z,75.89
2022-09-14T04:34:11.637Z,75.55
2022-09-14T04:36:38.252Z,75.95
2022-09-14T04:39:05.175Z,76.87
2022-09-14T04:41:32.790Z,76.35
2022-09-14T04:44:00.119Z,75.45
2022-09-14T04:46:30.368Z,74.97
2022-09-14T04:48:57.428Z,75.27
2022-09-14T04:51:26.903Z,74.71
2022-09-14T04:53:55.485Z,75.13
2022-09-14T04:56:23.656Z,75.81
2022-09-14T04:58:56.961Z,77.15
2022-09-14T05:01:26.080Z,77.92
2022-09-14T05:03:53.886Z,77.24
2022-09-14T05:06:23.558Z,77.15
2022-09-14T05:08:51.617Z,78.57
2022-09-14T05:11:24.464Z,78.18
2022-09-14T05:13:52.088Z,77.41
2022-09-14T05:16:20.410Z,77.20
2022-09-14T05:18:47.966Z,77.64
2022-09-14T05:21:17.502Z,77.41
2022-09-14T05:23:44.599Z,77.03
2022-09-14T05:26:12.849Z,76.62
2022-09-14T05:28:40.911Z,76.23
2022-09-14T05:31:11.285Z,75.79
2022-09-14T05:33:38.132Z,77.35
2022-09-14T05:36:06.830Z,77.21
2022-09-14T05:38:37.035Z,78.41
2022-09-14T05:41:08.450Z,78.46
2022-09-14T05:43:35.314Z,77.96
2022-09-14T05:46:07.192Z,76.64
2022-09-14T05:48:41.020Z,77.58
2022-09-14T05:51:24.756Z,76.41
2022-09-14T05:53:57.953Z,76.67
2022-09-14T05:56:27.281Z,77.33
2022-09-14T05:58:54.891Z,77.09
2022-09-14T06:01:24.271Z,77.77
2022-09-14T06:03:54.491Z,77.09
2022-09-14T06:06:21.831Z,76.59
2022-09-14T06:08:50.336Z,76.07
2022-09-14T06:11:19.553Z,75.10
2022-09-14T06:13:46.394Z,75.70
2022-09-14T06:16:17.509Z,76.60
2022-09-14T06:18:45.704Z,77.03
2022-09-14T06:21:14.107Z,77.04
2022-09-14T06:23:41.822Z,77.15
2022-09-14T06:26:09.063Z,76.19
2022-09-14T06:28:36.241Z,76.26
2022-09-14T06:31:04.044Z,77.22
2022-09-14T06:33:31.790Z,76.26
2022-09-14T06:36:07.612Z,76.15
2022-09-14T06:38:34.278Z,77.00
2022-09-14T06:41:03.550Z,76.33
2022-09-14T06:43:33.555Z,76.05
2022-09-14T06:46:01.828Z,75.77
2022-09-14T06:48:54.174Z,75.29
2022-09-14T06:51:23.464Z,75.07
2022-09-14T06:53:51.352Z,74.88
2022-09-14T06:56:18.559Z,77.06
2022-09-14T06:58:45.542Z,77.64
2022-09-14T07:01:16.049Z,77.17
2022-09-14T07:03:43.560Z,78.48
2022-09-14T07:06:12.882Z,78.12
2022-09-14T07:08:40.204Z,77.96
2022-09-14T07:11:08.260Z,77.37
2022-09-14T07:13:35.539Z,77.33
2022-09-14T07:16:02.338Z,76.20
2022-09-14T07:18:29.944Z,75.87
2022-09-14T07:20:56.510Z,75.12
2022-09-14T07:23:23.194Z,75.92
2022-09-14T07:25:59.944Z,77.36
2022-09-14T07:28:27.651Z,76.63
2022-09-14T07:30:58.778Z,76.02
2022-09-14T07:33:26.239Z,75.29
2022-09-14T07:35:53.074Z,75.42
2022-09-14T07:38:30.770Z,75.69
2022-09-14T07:41:07.616Z,75.16
2022-09-14T07:43:34.881Z,74.98
2022-09-14T07:46:05.923Z,75.04
2022-09-14T07:48:35.533Z,74.47
2022-09-14T07:51:08.179Z,76.00
2022-09-14T07:53:40.573Z,76.19
2022-09-14T07:56:08.606Z,75.75
2022-09-14T07:58:35.880Z,76.21
2022-09-14T08:01:08.221Z,76.44
2022-09-14T08:03:36.100Z,76.94
2022-09-14T08:06:04.814Z,76.94
2022-09-14T08:08:33.751Z,77.41
2022-09-14T08:11:11.726Z,77.04
2022-09-14T08:13:41.168Z,77.17
2022-09-14T08:16:08.639Z,77.51
2022-09-14T08:18:37.984Z,77.54
2022-09-14T08:21:15.950Z,76.78
2022-09-14T08:23:43.657Z,76.48
2022-09-14T08:26:22.603Z,76.35
2022-09-14T08:28:50.818Z,77.35
2022-09-14T08:31:23.159Z,79.28
2022-09-14T08:33:52.702Z,80.91
2022-09-14T08:36:20.865Z,80.88
2022-09-14T08:38:47.624Z,82.37
2022-09-14T08:41:44.813Z,86.02
2022-09-14T08:44:11.369Z,86.37
2022-09-14T08:47:35.155Z,87.13
2022-09-14T08:50:05.142Z,86.65
2022-09-14T08:52:36.348Z,87.34
2022-09-14T08:55:16.885Z,88.88
2022-09-14T08:58:03.513Z,86.30
2022-09-14T09:01:12.819Z,83.44
2022-09-14T09:04:17.355Z,81.40
2022-09-14T09:06:52.845Z,80.78
2022-09-14T09:09:25.116Z,80.84
2022-09-14T09:11:54.192Z,81.18
2022-09-14T09:14:58.002Z,80.36
2022-09-14T09:17:40.434Z,80.31
2022-09-14T09:20:15.333Z,81.14
2022-09-14T09:22:47.388Z,80.85
2022-09-14T09:25:23.480Z,80.68
2022-09-14T09:28:09.934Z,80.63
2022-09-14T09:30:38.627Z,80.58
2022-09-14T09:33:06.496Z,81.23
2022-09-14T09:36:01.508Z,81.62
2022-09-14T09:38:30.420Z,81.25
2022-09-14T09:41:01.349Z,80.43
2022-09-14T09:43:48.473Z,79.32
2022-09-14T09:46:15.046Z,78.48
2022-09-14T09:48:44.957Z,80.28
2022-09-14T09:51:17.464Z,80.46
2022-09-14T09:54:12.707Z,80.51
2022-09-14T09:56:49.809Z,80.52
2022-09-14T09:59:38.002Z,80.47
2022-09-14T10:02:34.539Z,79.64
2022-09-14T10:05:10.459Z,80.42
2022-09-14T10:07:49.121Z,81.08
2022-09-14T10:10:19.067Z,81.94
2022-09-14T10:12:56.860Z,81.87
2022-09-14T10:15:34.895Z,80.84
2022-09-14T10:18:10.946Z,81.07
2022-09-14T10:20:40.494Z,80.80
2022-09-14T10:23:19.485Z,80.30
2022-09-14T10:25:51.566Z,80.40
2022-09-14T10:28:33.337Z,81.98
2022-09-14T10:31:07.314Z,82.15
2022-09-14T10:33:35.147Z,81.22
2022-09-14T10:36:24.245Z,82.45
2022-09-14T10:39:12.801Z,81.95
2022-09-14T10:42:14.948Z,81.80
2022-09-14T10:44:50.674Z,81.75
2022-09-14T10:47:43.125Z,80.96
2022-09-14T10:50:35.646Z,81.81
2022-09-14T10:53:27.499Z,79.52
2022-09-14T10:56:17.895Z,78.85
2022-09-14T10:58:50.589Z,79.11
2022-09-14T11:01:17.222Z,79.99
2022-09-14T11:03:52.572Z,80.61
2022-09-14T11:06:46.991Z,80.28
2022-09-14T11:09:30.193Z,80.90
2022-09-14T11:12:14.561Z,81.46
2022-09-14T11:14:44.193Z,82.14
2022-09-14T11:17:58.290Z,82.00
2022-09-14T11:20:42.564Z,82.60
2022-09-14T11:23:30.630Z,83.22
2022-09-14T11:26:06.925Z,82.32
2022-09-14T11:28:40.945Z,82.24
2022-09-14T11:31:15.294Z,82.75
2022-09-14T11:34:11.065Z,82.49
2022-09-14T11:36:44.425Z,83.55
2022-09-14T11:39:24.663Z,84.73
2022-09-14T11:42:00.340Z,83.16
2022-09-14T11:44:33.499Z,83.73
2022-09-14T11:47:35.126Z,82.00
2022-09-14T11:50:15.582Z,82.81
2022-09-14T11:52:42.360Z,82.08
2022-09-14T11:55:24.216Z,82.87
2022-09-14T11:57:52.413Z,82.25
2022-09-14T12:00:25.082Z,82.17
2022-09-14T12:03:05.471Z,81.96
2022-09-14T12:05:33.812Z,82.98
2022-09-14T12:08:03.926Z,82.43
2022-09-14T12:10:30.911Z,81.13
2022-09-14T12:13:18.699Z,81.56
2022-09-14T12:15:46.135Z,81.15
2022-09-14T12:18:12.692Z,81.30
2022-09-14T12:21:06.060Z,80.83
2022-09-14T12:23:43.220Z,81.17
2022-09-14T12:26:18.933Z,80.94
2022-09-14T12:28:48.238Z,79.39
2022-09-14T12:31:43.956Z,79.25
2022-09-14T12:34:24.949Z,79.55
2022-09-14T12:36:51.825Z,78.98
2022-09-14T12:39:27.800Z,78.60
2022-09-14T12:41:54.619Z,79.28
2022-09-14T12:44:36.582Z,78.31
2022-09-14T12:47:25.247Z,77.83
2022-09-14T12:50:04.855Z,77.11
2022-09-14T12:52:58.975Z,78.11
2022-09-14T12:55:47.144Z,78.29
2022-09-14T12:58:25.977Z,78.43
2022-09-14T13:01:17.554Z,78.62
2022-09-14T13:03:51.227Z,78.19
2022-09-14T13:06:20.471Z,79.51
2022-09-14T13:08:50.026Z,80.14
2022-09-14T13:11:28.212Z,81.42
2022-09-14T13:13:56.054Z,83.90
2022-09-14T13:16:44.728Z,86.06
2022-09-14T13:19:37.901Z,86.55
2022-09-14T13:22:18.188Z,87.58
2022-09-14T13:24:46.446Z,87.56
2022-09-14T13:27:26.604Z,86.89
2022-09-14T13:30:11.566Z,86.40
2022-09-14T13:32:43.719Z,86.91
2022-09-14T13:35:31.414Z,85.32
2022-09-14T13:38:08.528Z,84.62
2022-09-14T13:40:35.883Z,83.65
2022-09-14T13:43:02.837Z,82.05
2022-09-14T13:45:30.094Z,81.42
2022-09-14T13:47:56.828Z,81.11
2022-09-14T13:50:24.568Z,80.66
2022-09-14T13:53:07.793Z,79.59
2022-09-14T13:55:34.434Z,80.32
2022-09-14T13:58:24.425Z,81.23
2022-09-14T14:01:00.609Z,80.79
2022-09-14T14:03:46.631Z,80.92
2022-09-14T14:06:27.280Z,81.37
2022-09-14T14:09:10.859Z,81.08
2022-09-14T14:11:39.940Z,81.14
2022-09-14T14:14:17.722Z,85.45
2022-09-14T14:17:18.558Z,85.46
2022-09-14T14:19:45.328Z,83.53
2022-09-14T14:22:16.214Z,82.69
2022-09-14T14:25:11.818Z,82.13
2022-09-14T14:27:31.457Z,83.03
2022-09-14T14:30:00.136Z,86.69
2022-09-14T14:32:28.511Z,87.88
2022-09-14T14:34:55.808Z,86.19
2022-09-14T14:37:22.475Z,85.08
2022-09-14T14:39:49.837Z,83.19
2022-09-14T14:42:17.526Z,82.01
2022-09-14T14:44:44.951Z,81.78
2022-09-14T14:47:15.627Z,82.46
2022-09-14T14:49:42.284Z,81.97
2022-09-14T14:52:10.069Z,81.67
2022-09-14T14:54:36.721Z,81.86
2022-09-14T14:57:03.595Z,81.80
2022-09-14T14:59:30.418Z,81.11
2022-09-14T15:01:57.794Z,82.42
2022-09-14T15:04:24.721Z,81.70
2022-09-14T15:06:51.749Z,80.80
2022-09-14T15:09:27.900Z,81.15
2022-09-14T15:11:55.038Z,80.63
2022-09-14T15:14:26.706Z,80.11
2022-09-14T15:16:54.849Z,80.55
2022-09-14T15:19:21.964Z,80.04
2022-09-14T15:21:50.067Z,84.12
2022-09-14T15:24:18.602Z,81.49
2022-09-14T15:26:45.319Z,80.22
2022-09-14T15:29:13.142Z,79.67
2022-09-14T15:31:40.682Z,79.49
2022-09-14T15:42:29.093Z,86.17
2022-09-14T15:44:56.213Z,87.25
2022-09-14T15:47:23.065Z,88.65
2022-09-14T15:49:53.508Z,89.24
2022-09-14T15:55:01.075Z,88.00
2022-09-14T16:02:51.814Z,92.52
2022-09-14T16:05:18.735Z,91.31
2022-09-14T16:07:45.759Z,90.20
2022-09-14T16:10:12.966Z,92.61
2022-09-14T16:12:39.901Z,93.43
2022-09-14T16:15:07.274Z,92.58
2022-09-14T16:17:34.221Z,90.84
2022-09-14T16:20:01.246Z,90.11
2022-09-14T16:22:28.115Z,91.25
2022-09-14T16:24:54.843Z,92.02
2022-09-14T16:27:22.834Z,91.38
2022-09-14T16:29:49.619Z,91.37
2022-09-14T16:32:16.385Z,91.28
2022-09-14T16:34:43.048Z,92.81
2022-09-14T16:37:09.861Z,92.22
2022-09-14T16:39:36.516Z,91.53
2022-09-14T16:42:03.378Z,90.34
2022-09-14T16:44:30.264Z,90.24
2022-09-14T16:46:58.332Z,90.33
2022-09-14T16:49:27.759Z,90.66
2022-09-14T16:51:55.563Z,90.42
2022-09-14T16:54:24.492Z,89.85
2022-09-14T16:56:51.895Z,87.44
2022-09-14T16:59:19.357Z,91.31
2022-09-14T17:01:52.121Z,90.59
2022-09-14T17:04:21.594Z,90.73
2022-09-14T17:06:49.418Z,90.69
2022-09-14T17:09:22.019Z,90.54
2022-09-14T17:11:49.474Z,90.15
2022-09-14T17:14:19.660Z,89.50
2022-09-14T17:16:46.889Z,89.29
2022-09-14T17:19:14.601Z,88.45
2022-09-14T17:21:43.153Z,90.14
2022-09-14T17:24:10.131Z,89.59
2022-09-14T17:26:37.260Z,88.33
2022-09-14T17:29:05.036Z,88.94
2022-09-14T17:31:34.600Z,89.99
2022-09-14T17:34:02.995Z,89.04
2022-09-14T17:36:29.867Z,88.60
2022-09-14T17:38:58.628Z,88.25
2022-09-14T17:41:26.937Z,88.34
2022-09-14T17:43:56.412Z,89.27
2022-09-14T17:46:23.854Z,88.80
2022-09-14T17:48:51.842Z,88.68
2022-09-14T17:51:23.961Z,88.22
2022-09-14T17:53:53.197Z,87.05
2022-09-14T17:56:23.012Z,87.32
2022-09-14T17:59:03.394Z,86.78
2022-09-14T18:01:33.506Z,86.64
2022-09-14T18:04:06.427Z,86.49
2022-09-14T18:06:35.534Z,85.62
2022-09-14T18:09:09.696Z,87.16
2022-09-14T18:11:37.376Z,86.86
2022-09-14T18:14:05.075Z,87.27
2022-09-14T18:16:32.654Z,87.17
2022-09-14T18:18:59.409Z,87.58
2022-09-14T18:21:26.581Z,88.25
2022-09-14T18:23:54.828Z,87.00
2022-09-14T18:26:23.308Z,85.80
2022-09-14T18:28:51.095Z,85.12
2022-09-14T18:31:19.088Z,84.18
2022-09-14T18:33:57.556Z,84.39
2022-09-14T18:36:25.749Z,85.17
2022-09-14T18:38:54.862Z,84.97
2022-09-14T18:41:21.478Z,84.72
2022-09-14T18:43:50.386Z,84.45
2022-09-14T18:46:18.301Z,84.41
2022-09-14T18:48:45.039Z,85.88
2022-09-14T18:51:13.632Z,88.76
2022-09-14T18:53:41.282Z,89.14
2022-09-14T18:56:10.820Z,88.61
2022-09-14T18:58:40.897Z,88.01
2022-09-14T19:01:10.911Z,88.26
2022-09-14T19:03:40.710Z,88.14
2022-09-14T19:06:12.103Z,88.15
2022-09-14T19:08:39.552Z,88.43
2022-09-14T19:11:29.303Z,88.56
2022-09-14T19:14:04.150Z,86.93
2022-09-14T19:16:31.220Z,86.27
2022-09-14T19:18:58.507Z,86.02
2022-09-14T19:21:30.998Z,85.72
2022-09-14T19:24:03.880Z,85.34
2022-09-14T19:26:33.797Z,85.16
2022-09-14T19:29:02.562Z,85.39
2022-09-14T19:31:29.868Z,86.11
2022-09-14T19:34:01.335Z,85.47
2022-09-14T19:36:30.606Z,85.13
2022-09-14T19:38:59.535Z,84.59
2022-09-14T19:41:26.239Z,84.23
2022-09-14T19:43:52.910Z,84.26
2022-09-14T19:46:20.975Z,84.20
2022-09-14T19:48:47.662Z,83.72
2022-09-14T19:51:17.604Z,83.95
2022-09-14T19:53:48.016Z,83.92
2022-09-14T19:56:17.301Z,84.85
2022-09-14T19:58:49.631Z,85.74
2022-09-14T20:01:19.507Z,86.19
2022-09-14T20:03:48.108Z,85.81
2022-09-14T20:06:17.441Z,85.32
2022-09-14T20:08:44.136Z,86.23
2022-09-14T20:11:16.614Z,86.11
2022-09-14T20:13:46.165Z,86.01
2022-09-14T20:16:18.349Z,88.91
2022-09-14T20:18:46.307Z,88.40
2022-09-14T20:21:15.571Z,87.87
2022-09-14T20:24:04.531Z,88.88
2022-09-14T20:26:30.754Z,89.94
2022-09-14T20:28:58.970Z,90.15
2022-09-14T20:31:26.104Z,93.07
2022-09-14T20:33:53.018Z,93.51
2022-09-14T20:36:21.796Z,92.26
2022-09-14T20:38:50.901Z,90.89
2022-09-14T20:41:18.554Z,92.64
2022-09-14T20:43:45.789Z,91.66
2022-09-14T20:46:15.268Z,92.06
2022-09-14T20:48:41.939Z,91.96
2022-09-14T20:51:09.023Z,90.56
2022-09-14T20:53:37.826Z,89.83
2022-09-14T20:56:13.828Z,89.68
2022-09-14T20:58:41.340Z,88.48
2022-09-14T21:01:19.250Z,88.41
2022-09-14T21:03:49.027Z,87.52
2022-09-14T21:06:24.952Z,87.13
2022-09-14T21:08:52.015Z,86.40
2022-09-14T21:11:20.962Z,86.05
2022-09-14T21:13:48.389Z,85.11
2022-09-14T21:16:18.417Z,84.96
2022-09-14T21:18:46.582Z,85.07
2022-09-14T21:21:19.205Z,85.39
2022-09-14T21:23:47.037Z,84.60
2022-09-14T21:26:14.258Z,84.18
2022-09-14T21:28:41.738Z,84.13
2022-09-14T21:31:08.441Z,83.45
2022-09-14T21:33:37.263Z,83.37
2022-09-14T21:36:19.002Z,82.97
2022-09-14T21:38:55.016Z,82.57
2022-09-14T21:41:23.720Z,82.98
2022-09-14T21:43:51.519Z,82.61
2022-09-14T21:46:19.460Z,82.14
2022-09-14T21:48:46.105Z,81.95
2022-09-14T21:51:21.257Z,82.35
2022-09-14T21:53:53.764Z,82.26
2022-09-14T21:56:22.078Z,82.43
2022-09-14T21:58:54.318Z,83.03
2022-09-14T22:01:21.744Z,84.83
2022-09-14T22:03:50.231Z,84.46
2022-09-14T22:06:18.135Z,83.35
2022-09-14T22:08:45.209Z,85.14
2022-09-14T22:11:23.026Z,84.78
2022-09-14T22:13:54.166Z,84.14
2022-09-14T22:16:22.422Z,83.55
2022-09-14T22:18:52.545Z,83.06
2022-09-14T22:21:19.935Z,82.74
2022-09-14T22:23:55.147Z,82.40
2022-09-14T22:26:23.128Z,82.20
2022-09-14T22:28:51.596Z,81.89
2022-09-14T22:31:20.521Z,81.63
2022-09-14T22:33:47.785Z,81.66
2022-09-14T22:36:14.830Z,81.42
2022-09-14T22:38:41.527Z,81.64
2022-09-14T22:41:17.404Z,81.51
2022-09-14T22:43:45.300Z,81.57
2022-09-14T22:46:12.824Z,81.32
2022-09-14T22:48:40.119Z,81.53
2022-09-14T22:51:08.785Z,81.45
2022-09-14T22:53:36.003Z,81.53
2022-09-14T22:56:10.471Z,81.02
2022-09-14T22:58:37.617Z,80.56
2022-09-14T23:01:10.036Z,81.07
2022-09-14T23:03:37.406Z,81.35
2022-09-14T23:06:04.704Z,81.60
2022-09-14T23:08:32.400Z,81.75
2022-09-14T23:11:06.597Z,81.74
2022-09-14T23:13:37.980Z,81.37
2022-09-14T23:16:20.679Z,81.43
2022-09-14T23:18:55.633Z,81.10
2022-09-14T23:21:22.756Z,81.00
2022-09-14T23:23:54.639Z,81.18
2022-09-14T23:26:22.536Z,81.25
2022-09-14T23:28:58.156Z,82.55
2022-09-14T23:31:26.118Z,82.84
2022-09-14T23:33:54.545Z,83.28
2022-09-14T23:36:22.227Z,85.11
2022-09-14T23:38:49.335Z,85.98
2022-09-14T23:41:16.999Z,86.10
2022-09-14T23:43:44.104Z,85.65
2022-09-14T23:46:11.280Z,88.09
2022-09-14T23:48:38.425Z,88.79
2022-09-14T23:51:07.175Z,87.61
2022-09-14T23:53:34.773Z,86.77
2022-09-14T23:56:02.028Z,87.06
2022-09-14T23:58:28.753Z,86.51
